Time;durP1;ratioP1;P1;durP2;ratioP2;P2;SDS_P1;SDS_P2;PMS_P1;PMS_P2;Temp;Humidity;BMP_temperature;BMP_pressure;BME280_temperature;BME280_humidity;BME280_pressure;Samples;Min_cycle;Max_cycle;Signal;HPM_P1;HPM_P2
2022/03/17 00:01:02;;;;;;;;;7.00;7.00;;;;;;;;5068738;27;51196;-59
2022/03/17 00:03:27;;;;;;;;;8.00;7.00;;;;;;;;5072545;28;51318;-61
2022/03/17 00:05:52;;;;;;;;;7.67;6.00;;;;;;;;5065395;27;52203;-61
2022/03/17 00:08:19;;;;;;;;;13.00;11.00;;;;;;;;5071629;28;51080;-61
2022/03/17 00:10:44;;;;;;;;;11.33;10.33;;;;;;;;5069685;28;51163;-60
2022/03/17 00:13:11;;;;;;;;;7.00;7.00;;;;;;;;5073259;28;50978;-61
2022/03/17 00:15:39;;;;;;;;;11.33;11.00;;;;;;;;5070337;27;51950;-61
2022/03/17 00:18:05;;;;;;;;;9.00;9.00;;;;;;;;5072882;28;51020;-60
2022/03/17 00:20:30;;;;;;;;;10.50;10.50;;;;;;;;5064993;27;51372;-61
2022/03/17 00:22:55;;;;;;;;;11.50;11.50;;;;;;;;5079418;27;51251;-60
2022/03/17 00:25:21;;;;;;;;;14.00;14.00;;;;;;;;5062625;27;51918;-61
2022/03/17 00:27:46;;;;;;;;;15.75;15.25;;;;;;;;5074229;27;51185;-61
2022/03/17 00:30:11;;;;;;;;;12.25;12.25;;;;;;;;5070851;27;51301;-61
2022/03/17 00:32:38;;;;;;;;;14.75;14.00;;;;;;;;5073057;28;51263;-60
2022/03/17 00:37:48;;;;;;;;;14.75;14.75;;;;;;;;5070538;27;51310;-60
2022/03/17 00:40:13;;;;;;;;;15.50;14.50;;;;;;;;5066732;27;51541;-61
2022/03/17 00:42:39;;;;;;;;;14.50;14.50;;;;;;;;5069402;28;51291;-61
2022/03/17 00:45:05;;;;;;;;;15.00;15.00;;;;;;;;5071029;28;51861;-61
2022/03/17 00:47:30;;;;;;;;;19.75;18.75;;;;;;;;5069168;28;51052;-60
2022/03/17 00:49:55;;;;;;;;;22.50;20.00;;;;;;;;5070365;27;51128;-61
2022/03/17 00:52:20;;;;;;;;;18.75;16.25;;;;;;;;5069150;28;51055;-62
2022/03/17 00:54:46;;;;;;;;;20.50;19.75;;;;;;;;5070248;28;51776;-60
2022/03/17 00:57:14;;;;;;;;;22.25;21.00;;;;;;;;5068004;27;51128;-59
2022/03/17 00:59:40;;;;;;;;;23.25;22.25;;;;;;;;5071097;27;51204;-61
2022/03/17 01:02:05;;;;;;;;;20.50;20.50;;;;;;;;5070841;28;52107;-61
2022/03/17 01:04:31;;;;;;;;;19.25;17.75;;;;;;;;5068589;28;53110;-60
2022/03/17 01:06:56;;;;;;;;;19.75;19.25;;;;;;;;5069560;27;51119;-59
2022/03/17 01:09:21;;;;;;;;;23.75;23.50;;;;;;;;5070474;28;51156;-60
2022/03/17 01:11:47;;;;;;;;;22.00;21.00;;;;;;;;5070435;27;51161;-61
2022/03/17 01:14:13;;;;;;;;;24.75;22.75;;;;;;;;5069650;28;52178;-61
2022/03/17 01:16:39;;;;;;;;;21.50;20.00;;;;;;;;5068960;28;51090;-61
2022/03/17 01:19:04;;;;;;;;;25.50;22.25;;;;;;;;5057030;27;51241;-61
2022/03/17 01:21:29;;;;;;;;;23.50;22.25;;;;;;;;5068789;27;51346;-62
2022/03/17 01:23:55;;;;;;;;;22.25;22.00;;;;;;;;5068571;27;51180;-61
2022/03/17 01:26:20;;;;;;;;;23.25;22.00;;;;;;;;5061983;27;51186;-61
2022/03/17 01:28:45;;;;;;;;;26.25;25.75;;;;;;;;5066907;27;51170;-59
2022/03/17 01:31:11;;;;;;;;;23.25;21.75;;;;;;;;5068618;27;52046;-60
2022/03/17 01:33:36;;;;;;;;;28.75;26.50;;;;;;;;5063740;27;51690;-62
2022/03/17 01:36:01;;;;;;;;;22.00;22.00;;;;;;;;5066611;28;50982;-62
2022/03/17 01:38:27;;;;;;;;;24.00;23.00;;;;;;;;5070573;28;51023;-61
2022/03/17 01:40:52;;;;;;;;;24.50;22.00;;;;;;;;5070266;28;51104;-62
2022/03/17 01:43:20;;;;;;;;;24.25;24.25;;;;;;;;5071923;27;51023;-61
2022/03/17 01:45:45;;;;;;;;;22.00;22.00;;;;;;;;5072183;28;50960;-61
2022/03/17 01:48:10;;;;;;;;;23.75;23.25;;;;;;;;5070611;28;51176;-61
2022/03/17 01:50:36;;;;;;;;;25.00;23.50;;;;;;;;5071962;28;51086;-61
2022/03/17 01:53:01;;;;;;;;;22.75;22.50;;;;;;;;5069710;27;52921;-61
2022/03/17 01:55:27;;;;;;;;;23.75;22.00;;;;;;;;5061995;28;50976;-61
2022/03/17 01:57:52;;;;;;;;;25.25;24.25;;;;;;;;5070817;28;52037;-61
2022/03/17 02:00:18;;;;;;;;;23.00;22.50;;;;;;;;5072344;27;51140;-62
2022/03/17 02:02:45;;;;;;;;;24.00;22.75;;;;;;;;5069866;27;51889;-63
2022/03/17 02:05:11;;;;;;;;;23.00;23.00;;;;;;;;5073165;28;51029;-60
2022/03/17 02:07:36;;;;;;;;;20.50;19.25;;;;;;;;5075619;27;51053;-60
2022/03/17 02:10:03;;;;;;;;;20.50;20.00;;;;;;;;5074619;27;51429;-60
2022/03/17 02:15:12;;;;;;;;;24.75;23.25;;;;;;;;5063135;28;51057;-61
2022/03/17 02:17:39;;;;;;;;;22.25;21.25;;;;;;;;5073259;28;51135;-62
2022/03/17 02:20:05;;;;;;;;;22.00;21.00;;;;;;;;5074151;28;51250;-61
2022/03/17 02:22:30;;;;;;;;;23.75;22.50;;;;;;;;5074087;27;51215;-60
2022/03/17 02:27:42;;;;;;;;;24.00;22.50;;;;;;;;5074678;28;51036;-62
2022/03/17 02:30:09;;;;;;;;;23.50;22.00;;;;;;;;5075441;27;51284;-62
2022/03/17 02:32:34;;;;;;;;;21.50;21.00;;;;;;;;5074798;28;52732;-62
2022/03/17 02:35:10;;;;;;;;;22.50;20.50;;;;;;;;5072458;28;51152;-63
2022/03/17 02:37:36;;;;;;;;;23.75;22.75;;;;;;;;5071379;28;51216;-62
2022/03/17 02:40:04;;;;;;;;;20.75;19.00;;;;;;;;5073731;28;50958;-61
2022/03/17 02:42:30;;;;;;;;;22.00;21.75;;;;;;;;5074788;28;51099;-62
2022/03/17 02:44:55;;;;;;;;;20.75;20.75;;;;;;;;5073150;27;51605;-62
2022/03/17 02:47:21;;;;;;;;;23.75;22.50;;;;;;;;5075050;27;52287;-62
2022/03/17 02:49:47;;;;;;;;;21.75;21.25;;;;;;;;5067875;28;51488;-61
2022/03/17 02:52:12;;;;;;;;;20.75;20.00;;;;;;;;5077407;27;51792;-62
2022/03/17 02:54:38;;;;;;;;;17.50;17.50;;;;;;;;5082982;27;51295;-61
2022/03/17 02:57:05;;;;;;;;;20.75;20.75;;;;;;;;5074579;27;51144;-62
2022/03/17 02:59:31;;;;;;;;;16.25;16.25;;;;;;;;5070869;28;50863;-61
2022/03/17 03:01:56;;;;;;;;;17.00;17.00;;;;;;;;5072529;28;52699;-62
2022/03/17 03:04:21;;;;;;;;;22.00;21.00;;;;;;;;5073727;28;51071;-61
2022/03/17 03:06:46;;;;;;;;;20.25;16.25;;;;;;;;5073152;27;51373;-63
2022/03/17 03:09:13;;;;;;;;;18.75;18.00;;;;;;;;5067283;27;51219;-61
2022/03/17 03:11:38;;;;;;;;;18.50;16.50;;;;;;;;5072212;28;51189;-60
2022/03/17 03:14:04;;;;;;;;;19.50;19.50;;;;;;;;5070395;27;51005;-61
2022/03/17 03:16:29;;;;;;;;;14.25;14.25;;;;;;;;5071746;28;51257;-62
2022/03/17 03:18:54;;;;;;;;;15.75;15.00;;;;;;;;5074216;28;51264;-62
2022/03/17 03:21:20;;;;;;;;;19.75;18.50;;;;;;;;5073431;27;51790;-62
2022/03/17 03:23:45;;;;;;;;;15.25;15.25;;;;;;;;5074280;28;51059;-61
2022/03/17 03:26:10;;;;;;;;;16.00;13.75;;;;;;;;5073714;28;51061;-63
2022/03/17 03:28:35;;;;;;;;;17.25;16.25;;;;;;;;5074771;28;50988;-61
2022/03/17 03:31:00;;;;;;;;;16.00;15.25;;;;;;;;5073270;28;51042;-61
2022/03/17 03:33:26;;;;;;;;;19.00;16.75;;;;;;;;5074183;27;51154;-61
2022/03/17 03:38:34;;;;;;;;;17.50;16.00;;;;;;;;5073517;27;51094;-61
2022/03/17 03:41:01;;;;;;;;;14.25;12.50;;;;;;;;5071267;28;51865;-63
2022/03/17 03:43:26;;;;;;;;;15.50;15.00;;;;;;;;5074211;27;51194;-61
2022/03/17 03:45:51;;;;;;;;;20.25;18.25;;;;;;;;5072090;28;51187;-62
2022/03/17 03:48:17;;;;;;;;;18.00;16.75;;;;;;;;5073061;27;51392;-62
2022/03/17 03:50:42;;;;;;;;;17.50;16.50;;;;;;;;5075469;27;51852;-62
2022/03/17 03:53:07;;;;;;;;;18.50;16.75;;;;;;;;5073447;27;51072;-61
2022/03/17 03:55:32;;;;;;;;;20.50;19.50;;;;;;;;5073670;28;51128;-62
2022/03/17 03:57:59;;;;;;;;;17.50;17.25;;;;;;;;5074337;28;51323;-62
2022/03/17 04:02:57;;;;;;;;;18.75;16.00;;;;;;;;5072959;27;51119;-62
2022/03/17 04:05:26;;;;;;;;;18.00;16.25;;;;;;;;5073799;27;50946;-61
2022/03/17 04:07:51;;;;;;;;;14.50;14.25;;;;;;;;5071153;28;51082;-62
2022/03/17 04:10:16;;;;;;;;;17.50;15.00;;;;;;;;5071673;27;51609;-61
2022/03/17 04:12:42;;;;;;;;;16.75;16.75;;;;;;;;5070961;28;51245;-61
2022/03/17 04:15:07;;;;;;;;;17.75;16.50;;;;;;;;5070190;27;51104;-63
2022/03/17 04:17:32;;;;;;;;;14.50;14.50;;;;;;;;5073665;27;51971;-60
2022/03/17 04:19:58;;;;;;;;;17.00;17.00;;;;;;;;5073007;27;51881;-62
2022/03/17 04:22:23;;;;;;;;;16.75;15.50;;;;;;;;5065208;27;51186;-62
2022/03/17 04:24:49;;;;;;;;;15.25;14.00;;;;;;;;5071823;27;50952;-61
2022/03/17 04:27:14;;;;;;;;;18.50;16.00;;;;;;;;5072545;27;52628;-61
2022/03/17 04:29:40;;;;;;;;;12.50;12.00;;;;;;;;5073019;27;52812;-62
2022/03/17 04:32:07;;;;;;;;;13.00;11.50;;;;;;;;5072293;27;51470;-62
2022/03/17 04:34:32;;;;;;;;;10.75;10.50;;;;;;;;5073226;28;51067;-62
2022/03/17 04:36:57;;;;;;;;;14.25;13.00;;;;;;;;5072286;27;51183;-62
2022/03/17 04:39:23;;;;;;;;;13.75;13.00;;;;;;;;5072204;27;51800;-61
2022/03/17 04:41:48;;;;;;;;;13.25;13.00;;;;;;;;5071982;27;51189;-62
2022/03/17 04:44:13;;;;;;;;;13.00;13.00;;;;;;;;5071100;27;51138;-62
2022/03/17 04:46:40;;;;;;;;;12.50;11.75;;;;;;;;5073186;27;51506;-62
2022/03/17 04:49:06;;;;;;;;;13.50;10.50;;;;;;;;5066094;27;52284;-64
2022/03/17 04:51:31;;;;;;;;;11.25;10.25;;;;;;;;5070959;28;50855;-61
2022/03/17 04:53:57;;;;;;;;;10.00;9.00;;;;;;;;5071298;27;50908;-61
2022/03/17 04:56:22;;;;;;;;;9.00;8.00;;;;;;;;5072286;27;51257;-60
2022/03/17 04:58:48;;;;;;;;;11.50;10.75;;;;;;;;5072867;27;51897;-60
2022/03/17 05:01:13;;;;;;;;;10.50;9.25;;;;;;;;5067671;28;51114;-60
2022/03/17 05:03:39;;;;;;;;;9.00;8.00;;;;;;;;5073594;27;50949;-60
2022/03/17 05:06:04;;;;;;;;;8.00;5.00;;;;;;;;5071794;28;50980;-60
2022/03/17 05:08:33;;;;;;;;;11.00;9.75;;;;;;;;5067202;28;51090;-61
2022/03/17 05:10:58;;;;;;;;;7.25;6.25;;;;;;;;5064861;28;51684;-61
2022/03/17 05:13:23;;;;;;;;;9.75;9.00;;;;;;;;5070873;27;51086;-60
2022/03/17 05:15:49;;;;;;;;;9.00;8.50;;;;;;;;5066303;28;50984;-60
2022/03/17 05:18:15;;;;;;;;;8.50;8.00;;;;;;;;5071895;28;51348;-60
2022/03/17 05:20:43;;;;;;;;;9.25;9.00;;;;;;;;5072731;28;51009;-60
2022/03/17 05:23:10;;;;;;;;;9.00;8.25;;;;;;;;5059185;28;51004;-60
2022/03/17 05:25:36;;;;;;;;;8.25;7.75;;;;;;;;5070691;28;51752;-60
2022/03/17 05:28:01;;;;;;;;;8.75;8.00;;;;;;;;5071774;27;52584;-61
2022/03/17 05:30:27;;;;;;;;;8.50;8.50;;;;;;;;5069533;27;51020;-61
2022/03/17 05:32:53;;;;;;;;;8.25;8.00;;;;;;;;5072910;28;51138;-61
2022/03/17 05:35:18;;;;;;;;;11.00;10.25;;;;;;;;5073197;28;51067;-61
2022/03/17 05:37:43;;;;;;;;;8.75;8.00;;;;;;;;5073948;28;53052;-61
2022/03/17 05:40:13;;;;;;;;;8.25;7.75;;;;;;;;5076113;28;51081;-60
2022/03/17 05:42:39;;;;;;;;;10.00;9.25;;;;;;;;5076428;27;50972;-59
2022/03/17 05:45:04;;;;;;;;;9.75;9.75;;;;;;;;5074156;28;51221;-60
2022/03/17 05:47:36;;;;;;;;;8.00;8.00;;;;;;;;5071926;27;51063;-61
2022/03/17 05:50:02;;;;;;;;;9.00;8.00;;;;;;;;5075674;28;50975;-60
2022/03/17 05:52:27;;;;;;;;;10.00;10.00;;;;;;;;5075332;28;51061;-60
2022/03/17 05:54:53;;;;;;;;;11.00;10.25;;;;;;;;5073861;28;51460;-60
2022/03/17 05:57:18;;;;;;;;;8.25;8.00;;;;;;;;5074342;28;52220;-60
2022/03/17 05:59:43;;;;;;;;;11.50;9.00;;;;;;;;5075302;27;51153;-60
2022/03/17 06:02:09;;;;;;;;;10.25;10.25;;;;;;;;5071350;27;51239;-60
2022/03/17 06:04:35;;;;;;;;;9.50;9.25;;;;;;;;5074928;28;51279;-60
2022/03/17 06:07:00;;;;;;;;;11.00;11.00;;;;;;;;5073243;27;51927;-60
2022/03/17 06:09:25;;;;;;;;;6.25;6.25;;;;;;;;5073590;27;51113;-61
2022/03/17 06:11:50;;;;;;;;;10.00;10.00;;;;;;;;5073642;28;50905;-60
2022/03/17 06:14:16;;;;;;;;;10.00;9.75;;;;;;;;5075069;28;51224;-61
2022/03/17 06:16:41;;;;;;;;;11.00;9.50;;;;;;;;5072070;27;51660;-60
2022/03/17 06:19:06;;;;;;;;;10.25;9.25;;;;;;;;5074820;27;51206;-60
2022/03/17 06:21:32;;;;;;;;;8.75;8.50;;;;;;;;5074829;28;51100;-61
2022/03/17 06:23:57;;;;;;;;;6.75;6.25;;;;;;;;5075434;28;51337;-60
2022/03/17 06:26:22;;;;;;;;;6.25;5.25;;;;;;;;5073921;28;52152;-62
2022/03/17 06:28:47;;;;;;;;;9.00;7.50;;;;;;;;5072597;27;51183;-61
2022/03/17 06:31:13;;;;;;;;;6.50;6.25;;;;;;;;5074800;28;51290;-61
2022/03/17 06:33:38;;;;;;;;;4.50;4.00;;;;;;;;5073504;28;51324;-61
2022/03/17 06:36:04;;;;;;;;;5.00;5.00;;;;;;;;5073600;28;51609;-61
2022/03/17 06:38:29;;;;;;;;;5.00;5.00;;;;;;;;5075176;28;51246;-61
2022/03/17 06:40:54;;;;;;;;;15.00;14.75;;;;;;;;5074966;28;50933;-61
2022/03/17 06:43:19;;;;;;;;;7.75;6.25;;;;;;;;5072797;27;51312;-61
2022/03/17 06:45:45;;;;;;;;;11.00;10.00;;;;;;;;5071736;28;52215;-61
2022/03/17 06:48:10;;;;;;;;;8.50;7.75;;;;;;;;5073011;28;51034;-61
2022/03/17 06:50:35;;;;;;;;;5.25;4.25;;;;;;;;5073977;28;51452;-61
2022/03/17 06:53:01;;;;;;;;;7.00;7.00;;;;;;;;5074026;28;51219;-61
2022/03/17 06:55:26;;;;;;;;;6.25;6.25;;;;;;;;5074184;28;52424;-61
2022/03/17 06:57:51;;;;;;;;;4.75;4.75;;;;;;;;5074552;28;50886;-62
2022/03/17 07:00:18;;;;;;;;;8.00;6.50;;;;;;;;5073569;28;51094;-61
2022/03/17 07:02:43;;;;;;;;;11.00;11.00;;;;;;;;5074774;28;51334;-62
2022/03/17 07:05:08;;;;;;;;;8.00;8.00;;;;;;;;5073181;28;53500;-62
2022/03/17 07:07:34;;;;;;;;;5.00;5.00;;;;;;;;5074869;28;50743;-62
2022/03/17 07:09:59;;;;;;;;;4.00;4.00;;;;;;;;5066807;28;51043;-62
2022/03/17 07:12:24;;;;;;;;;6.25;6.25;;;;;;;;5074970;28;50918;-62
2022/03/17 07:14:50;;;;;;;;;4.75;4.75;;;;;;;;5074373;28;50968;-61
2022/03/17 07:17:19;;;;;;;;;4.00;4.00;;;;;;;;5074569;28;50926;-60
2022/03/17 07:19:45;;;;;;;;;6.25;6.25;;;;;;;;5074096;28;50930;-61
2022/03/17 07:22:10;;;;;;;;;6.25;6.25;;;;;;;;5074676;27;51148;-61
2022/03/17 07:24:35;;;;;;;;;9.50;8.25;;;;;;;;5073775;28;51127;-62
2022/03/17 07:27:01;;;;;;;;;4.75;4.75;;;;;;;;5074251;28;51119;-62
2022/03/17 07:29:28;;;;;;;;;4.75;4.75;;;;;;;;5072667;28;50972;-61
2022/03/17 07:31:56;;;;;;;;;4.75;4.00;;;;;;;;5076579;27;51200;-62
2022/03/17 07:34:22;;;;;;;;;6.25;6.00;;;;;;;;5065494;28;53211;-61
2022/03/17 07:36:47;;;;;;;;;5.00;5.00;;;;;;;;5073877;28;51047;-61
2022/03/17 07:39:12;;;;;;;;;8.25;6.25;;;;;;;;5073946;28;51028;-61
2022/03/17 07:41:38;;;;;;;;;5.00;5.00;;;;;;;;5074328;27;50933;-62
2022/03/17 07:44:03;;;;;;;;;9.50;8.50;;;;;;;;5072221;27;51138;-61
2022/03/17 07:46:28;;;;;;;;;6.25;6.25;;;;;;;;5073920;28;51007;-61
2022/03/17 07:48:54;;;;;;;;;8.00;8.00;;;;;;;;5073895;28;51083;-60
2022/03/17 07:51:22;;;;;;;;;4.00;4.00;;;;;;;;5074109;28;51313;-62
2022/03/17 07:53:47;;;;;;;;;6.00;5.00;;;;;;;;5072920;28;51261;-61
2022/03/17 07:56:14;;;;;;;;;5.00;5.00;;;;;;;;5073329;27;51091;-61
2022/03/17 07:58:39;;;;;;;;;8.00;6.75;;;;;;;;5073422;28;51196;-62
2022/03/17 08:01:05;;;;;;;;;11.00;7.75;;;;;;;;5073710;28;50871;-60
2022/03/17 08:03:30;;;;;;;;;8.25;6.25;;;;;;;;5073322;27;52053;-61
2022/03/17 08:05:56;;;;;;;;;7.50;7.50;;;;;;;;5073365;28;50904;-61
2022/03/17 08:08:21;;;;;;;;;7.50;6.25;;;;;;;;5073106;28;51159;-62
2022/03/17 08:10:46;;;;;;;;;5.75;5.00;;;;;;;;5073283;28;50884;-62
2022/03/17 08:13:11;;;;;;;;;8.00;6.25;;;;;;;;5073164;28;51126;-62
2022/03/17 08:15:37;;;;;;;;;10.00;9.00;;;;;;;;5073769;28;51072;-62
2022/03/17 08:18:03;;;;;;;;;10.00;8.00;;;;;;;;5074569;28;51076;-62
2022/03/17 08:20:29;;;;;;;;;8.00;8.00;;;;;;;;5073892;28;51149;-62
2022/03/17 08:22:55;;;;;;;;;11.00;10.75;;;;;;;;5072829;28;51959;-62
2022/03/17 08:25:20;;;;;;;;;6.75;6.75;;;;;;;;5073408;28;51084;-62
2022/03/17 08:27:45;;;;;;;;;9.25;9.00;;;;;;;;5073386;28;51285;-61
2022/03/17 08:30:11;;;;;;;;;8.75;8.50;;;;;;;;5073770;28;50996;-62
2022/03/17 08:32:36;;;;;;;;;11.00;9.00;;;;;;;;5073135;28;51691;-62
2022/03/17 08:35:02;;;;;;;;;11.00;8.00;;;;;;;;5073170;28;51027;-60
2022/03/17 08:37:27;;;;;;;;;10.50;9.75;;;;;;;;5071994;28;51052;-62
2022/03/17 08:39:52;;;;;;;;;11.75;9.25;;;;;;;;5073291;28;51665;-61
2022/03/17 08:42:17;;;;;;;;;9.00;9.00;;;;;;;;5073049;28;51486;-61
2022/03/17 08:44:42;;;;;;;;;8.00;7.25;;;;;;;;5073238;28;50968;-61
2022/03/17 08:49:52;;;;;;;;;7.25;7.25;;;;;;;;5073531;28;51044;-62
2022/03/17 08:52:19;;;;;;;;;9.50;8.00;;;;;;;;5072799;28;51386;-61
2022/03/17 08:54:44;;;;;;;;;10.25;10.25;;;;;;;;5072865;28;50866;-62
2022/03/17 08:57:11;;;;;;;;;10.25;10.25;;;;;;;;5072577;28;51199;-60
2022/03/17 08:59:36;;;;;;;;;8.50;8.25;;;;;;;;5073003;28;51169;-61
2022/03/17 09:02:06;;;;;;;;;11.00;10.00;;;;;;;;5072459;28;51080;-61
2022/03/17 09:04:31;;;;;;;;;11.00;10.25;;;;;;;;5072693;28;50870;-61
2022/03/17 09:06:59;;;;;;;;;12.50;9.25;;;;;;;;5072682;28;50902;-61
2022/03/17 09:09:28;;;;;;;;;9.75;8.00;;;;;;;;5066077;28;51048;-61
2022/03/17 09:11:53;;;;;;;;;9.25;8.25;;;;;;;;5072598;28;51220;-62
2022/03/17 09:14:19;;;;;;;;;8.00;7.25;;;;;;;;5072232;28;51108;-61
2022/03/17 09:16:44;;;;;;;;;10.25;9.50;;;;;;;;5072781;28;51021;-62
2022/03/17 09:19:09;;;;;;;;;12.75;11.50;;;;;;;;5072869;28;51046;-61
2022/03/17 09:21:35;;;;;;;;;13.25;13.00;;;;;;;;5065184;28;51880;-61
2022/03/17 09:24:01;;;;;;;;;13.75;11.75;;;;;;;;5065272;28;50982;-61
2022/03/17 09:26:26;;;;;;;;;10.75;10.00;;;;;;;;5062889;28;51112;-62
2022/03/17 09:28:52;;;;;;;;;12.00;11.25;;;;;;;;5072840;28;51325;-61
2022/03/17 09:31:17;;;;;;;;;13.50;12.75;;;;;;;;5072259;28;50899;-61
2022/03/17 09:33:45;;;;;;;;;11.25;11.00;;;;;;;;5072341;28;50908;-62
2022/03/17 09:36:10;;;;;;;;;11.00;9.50;;;;;;;;5072605;28;51188;-62
2022/03/17 09:38:35;;;;;;;;;10.25;10.00;;;;;;;;5071818;28;51300;-61
2022/03/17 09:41:01;;;;;;;;;9.25;8.75;;;;;;;;5071966;28;51081;-62
2022/03/17 09:43:29;;;;;;;;;10.25;9.25;;;;;;;;5072322;28;51174;-61
2022/03/17 09:45:55;;;;;;;;;9.25;8.00;;;;;;;;5072856;28;50931;-61
2022/03/17 09:48:22;;;;;;;;;12.50;11.75;;;;;;;;5072539;28;51230;-61
2022/03/17 09:50:47;;;;;;;;;11.25;10.50;;;;;;;;5071881;28;51653;-62
2022/03/17 09:53:13;;;;;;;;;9.00;8.50;;;;;;;;5072045;28;50949;-61
2022/03/17 09:55:43;;;;;;;;;10.00;9.25;;;;;;;;5072214;28;51064;-63
2022/03/17 09:58:08;;;;;;;;;11.50;10.00;;;;;;;;5070142;27;51010;-61
2022/03/17 10:00:49;;;;;;;;;10.00;9.25;;;;;;;;5071211;28;51131;-61
2022/03/17 10:03:18;;;;;;;;;9.50;8.00;;;;;;;;5060986;28;51052;-61
2022/03/17 10:05:45;;;;;;;;;12.50;11.00;;;;;;;;5071588;28;51098;-61
2022/03/17 10:08:10;;;;;;;;;10.75;9.75;;;;;;;;5065745;27;51164;-61
2022/03/17 10:10:37;;;;;;;;;9.25;8.50;;;;;;;;5070957;28;51780;-61
2022/03/17 10:13:04;;;;;;;;;11.50;9.00;;;;;;;;5071528;28;51045;-60
2022/03/17 10:15:30;;;;;;;;;10.00;9.75;;;;;;;;5071698;28;50864;-61
2022/03/17 10:17:55;;;;;;;;;10.25;10.25;;;;;;;;5064488;28;51243;-61
2022/03/17 10:20:25;;;;;;;;;11.00;10.75;;;;;;;;5070922;28;51210;-63
2022/03/17 10:22:53;;;;;;;;;11.00;10.75;;;;;;;;5073732;27;50941;-61
2022/03/17 10:25:21;;;;;;;;;10.50;10.00;;;;;;;;5074782;28;50903;-61
2022/03/17 10:27:49;;;;;;;;;11.75;10.75;;;;;;;;5072977;28;51293;-61
2022/03/17 10:30:15;;;;;;;;;10.50;9.25;;;;;;;;5073609;28;52291;-61
2022/03/17 10:32:52;;;;;;;;;10.00;9.50;;;;;;;;5070886;28;51044;-61
2022/03/17 10:35:22;;;;;;;;;10.25;10.25;;;;;;;;5074775;28;50909;-62
2022/03/17 10:37:49;;;;;;;;;10.50;9.75;;;;;;;;5074134;28;50946;-61
2022/03/17 10:40:14;;;;;;;;;11.00;11.00;;;;;;;;5073987;28;51972;-61
2022/03/17 10:42:39;;;;;;;;;12.00;11.00;;;;;;;;5073996;28;51174;-61
2022/03/17 10:45:06;;;;;;;;;11.50;10.25;;;;;;;;5074417;28;51053;-61
2022/03/17 10:47:35;;;;;;;;;13.25;12.00;;;;;;;;5074889;28;51385;-61
2022/03/17 10:50:09;;;;;;;;;10.00;9.50;;;;;;;;5061278;28;51318;-62
2022/03/17 10:52:46;;;;;;;;;13.25;11.25;;;;;;;;5074121;28;50854;-62
2022/03/17 10:55:12;;;;;;;;;10.00;9.00;;;;;;;;5073824;28;51239;-61
2022/03/17 10:57:37;;;;;;;;;12.25;11.50;;;;;;;;5074303;28;50870;-61
2022/03/17 11:00:04;;;;;;;;;11.75;10.75;;;;;;;;5074086;28;51236;-62
2022/03/17 11:02:32;;;;;;;;;9.00;8.00;;;;;;;;5074038;28;51031;-61
2022/03/17 11:05:00;;;;;;;;;11.00;11.00;;;;;;;;5071764;27;51245;-61
2022/03/17 11:07:25;;;;;;;;;9.33;9.33;;;;;;;;5063743;28;51306;-61
2022/03/17 11:09:51;;;;;;;;;10.25;10.25;;;;;;;;5064953;27;51802;-61
2022/03/17 11:12:17;;;;;;;;;10.25;10.00;;;;;;;;5073743;28;50961;-62
2022/03/17 11:14:43;;;;;;;;;14.00;12.00;;;;;;;;5074168;28;51194;-62
2022/03/17 11:17:11;;;;;;;;;11.75;10.50;;;;;;;;5074053;28;51319;-61
2022/03/17 11:19:36;;;;;;;;;12.75;11.50;;;;;;;;5073397;28;52058;-62
2022/03/17 11:22:05;;;;;;;;;12.25;11.25;;;;;;;;5064602;27;50993;-61
2022/03/17 11:24:30;;;;;;;;;12.50;11.75;;;;;;;;5069611;28;51081;-61
2022/03/17 11:27:06;;;;;;;;;12.50;12.00;;;;;;;;5073831;28;50862;-62
2022/03/17 11:29:37;;;;;;;;;12.25;11.25;;;;;;;;5072167;28;52133;-62
2022/03/17 11:32:05;;;;;;;;;15.00;14.50;;;;;;;;5073615;28;50973;-61
2022/03/17 11:34:39;;;;;;;;;11.00;11.00;;;;;;;;5073862;28;50795;-62
2022/03/17 11:37:15;;;;;;;;;11.25;10.75;;;;;;;;5073869;28;50836;-62
2022/03/17 11:39:52;;;;;;;;;10.00;10.00;;;;;;;;5073576;28;50912;-61
2022/03/17 11:42:34;;;;;;;;;13.50;13.00;;;;;;;;5073365;28;51033;-62
2022/03/17 11:45:20;;;;;;;;;18.00;16.50;;;;;;;;5073235;27;51142;-61
2022/03/17 11:48:05;;;;;;;;;12.75;12.75;;;;;;;;5065665;28;51466;-61
2022/03/17 11:50:33;;;;;;;;;18.00;16.25;;;;;;;;5065434;28;51318;-61
2022/03/17 11:53:01;;;;;;;;;13.00;12.50;;;;;;;;5073311;28;51074;-61
2022/03/17 11:55:34;;;;;;;;;14.00;13.50;;;;;;;;5072615;28;50867;-61
2022/03/17 11:58:17;;;;;;;;;11.00;11.00;;;;;;;;5073507;28;50997;-62
2022/03/17 12:00:46;;;;;;;;;18.25;17.25;;;;;;;;5072802;28;51200;-61
2022/03/17 12:03:12;;;;;;;;;19.25;15.25;;;;;;;;5073289;27;51071;-62
2022/03/17 12:05:42;;;;;;;;;14.75;12.75;;;;;;;;5073360;28;51072;-61
2022/03/17 12:08:08;;;;;;;;;14.50;14.00;;;;;;;;5073060;28;51321;-61
2022/03/17 12:10:52;;;;;;;;;17.00;14.75;;;;;;;;5073066;28;51102;-61
2022/03/17 12:13:24;;;;;;;;;15.00;14.50;;;;;;;;5072815;28;51127;-61
2022/03/17 12:15:55;;;;;;;;;21.25;19.75;;;;;;;;5073195;28;51023;-61
2022/03/17 12:18:21;;;;;;;;;25.00;20.00;;;;;;;;5071500;28;51042;-62
2022/03/17 12:20:46;;;;;;;;;16.25;15.00;;;;;;;;5072593;28;51116;-62
2022/03/17 12:23:30;;;;;;;;;22.00;17.25;;;;;;;;5072494;28;51151;-62
2022/03/17 12:26:03;;;;;;;;;17.25;15.75;;;;;;;;5071653;28;51132;-61
2022/03/17 12:28:29;;;;;;;;;22.75;22.50;;;;;;;;5073350;28;51272;-61
2022/03/17 12:30:55;;;;;;;;;21.00;20.25;;;;;;;;5072510;28;51938;-62
2022/03/17 12:33:20;;;;;;;;;15.75;14.75;;;;;;;;5072546;28;51009;-63
2022/03/17 12:35:46;;;;;;;;;16.00;14.75;;;;;;;;5072524;28;51000;-61
2022/03/17 12:38:12;;;;;;;;;18.00;15.50;;;;;;;;5072848;28;51414;-61
2022/03/17 12:40:43;;;;;;;;;14.00;12.50;;;;;;;;5072216;28;52594;-61
2022/03/17 12:43:13;;;;;;;;;14.50;13.75;;;;;;;;5072635;27;51267;-62
2022/03/17 12:45:38;;;;;;;;;12.75;12.50;;;;;;;;5071142;28;51206;-62
2022/03/17 12:48:08;;;;;;;;;14.00;13.25;;;;;;;;5070626;28;50931;-61
2022/03/17 12:50:33;;;;;;;;;14.00;13.00;;;;;;;;5070823;28;53252;-62
2022/03/17 12:52:58;;;;;;;;;13.50;12.75;;;;;;;;5071963;28;50975;-62
2022/03/17 12:55:24;;;;;;;;;14.00;14.00;;;;;;;;5072262;28;50951;-62
2022/03/17 12:57:49;;;;;;;;;12.75;11.00;;;;;;;;5072257;27;50910;-61
2022/03/17 13:00:16;;;;;;;;;14.50;14.00;;;;;;;;5072306;28;51191;-61
2022/03/17 13:02:46;;;;;;;;;17.00;14.75;;;;;;;;5071924;28;50824;-61
2022/03/17 13:07:58;;;;;;;;;14.00;13.00;;;;;;;;5071949;28;51075;-61
2022/03/17 13:10:27;;;;;;;;;20.50;17.25;;;;;;;;5066121;27;51977;-62
2022/03/17 13:15:36;;;;;;;;;16.00;13.50;;;;;;;;5072514;28;50936;-61
2022/03/17 13:18:03;;;;;;;;;17.25;14.25;;;;;;;;5072527;28;50992;-61
2022/03/17 13:20:29;;;;;;;;;14.75;12.50;;;;;;;;5070213;28;51856;-62
2022/03/17 13:23:04;;;;;;;;;15.50;14.75;;;;;;;;5071089;28;51469;-62
2022/03/17 13:25:30;;;;;;;;;14.25;13.25;;;;;;;;5071776;27;50970;-61
2022/03/17 13:27:57;;;;;;;;;15.25;12.75;;;;;;;;5071959;28;50926;-61
2022/03/17 13:30:22;;;;;;;;;19.25;17.50;;;;;;;;5071392;28;52830;-61
2022/03/17 13:32:56;;;;;;;;;17.50;13.00;;;;;;;;5071627;28;51070;-61
2022/03/17 13:35:22;;;;;;;;;11.75;10.00;;;;;;;;5070529;28;51007;-61
2022/03/17 13:37:47;;;;;;;;;17.00;16.75;;;;;;;;5069565;28;51337;-61
2022/03/17 13:40:18;;;;;;;;;17.75;16.25;;;;;;;;5069551;28;51783;-60
2022/03/17 13:43:02;;;;;;;;;15.50;13.25;;;;;;;;5072221;27;51140;-62
2022/03/17 13:45:35;;;;;;;;;16.25;16.25;;;;;;;;5071550;28;50895;-61
2022/03/17 13:48:04;;;;;;;;;17.50;16.00;;;;;;;;5071802;28;51039;-61
2022/03/17 13:50:30;;;;;;;;;12.75;12.75;;;;;;;;5071354;28;51135;-62
2022/03/17 13:53:03;;;;;;;;;19.50;16.75;;;;;;;;5069779;28;51338;-60
2022/03/17 13:55:39;;;;;;;;;18.25;16.75;;;;;;;;5071712;28;50870;-61
2022/03/17 13:58:21;;;;;;;;;21.00;19.25;;;;;;;;5075359;28;50844;-61
2022/03/17 14:00:48;;;;;;;;;18.25;17.75;;;;;;;;5074546;28;52772;-61
2022/03/17 14:03:15;;;;;;;;;16.50;15.50;;;;;;;;5074786;27;51095;-61
2022/03/17 14:05:58;;;;;;;;;14.50;14.50;;;;;;;;5075499;28;50987;-61
2022/03/17 14:08:24;;;;;;;;;15.75;15.00;;;;;;;;5074458;28;51313;-61
2022/03/17 14:10:49;;;;;;;;;15.00;14.00;;;;;;;;5074572;28;50956;-62
2022/03/17 14:13:15;;;;;;;;;16.75;15.75;;;;;;;;5074999;28;50870;-62
2022/03/17 14:15:40;;;;;;;;;15.50;15.50;;;;;;;;5075270;28;51444;-62
2022/03/17 14:18:06;;;;;;;;;18.50;15.25;;;;;;;;5075217;28;50914;-62
2022/03/17 14:20:32;;;;;;;;;15.25;15.25;;;;;;;;5074828;28;51242;-61
2022/03/17 14:25:41;;;;;;;;;10.50;10.00;;;;;;;;5074864;28;51024;-61
2022/03/17 14:28:06;;;;;;;;;17.75;15.00;;;;;;;;5074861;28;51321;-61
2022/03/17 14:30:31;;;;;;;;;21.00;17.75;;;;;;;;5074801;28;52200;-61
2022/03/17 14:32:57;;;;;;;;;18.75;17.50;;;;;;;;5074533;28;51031;-61
2022/03/17 14:35:22;;;;;;;;;17.00;15.50;;;;;;;;5075297;27;50973;-61
2022/03/17 14:37:47;;;;;;;;;16.75;16.75;;;;;;;;5073352;28;51012;-61
2022/03/17 14:40:12;;;;;;;;;22.50;20.75;;;;;;;;5074380;28;51072;-61
2022/03/17 14:42:38;;;;;;;;;17.50;16.00;;;;;;;;5074637;28;51036;-61
2022/03/17 14:45:03;;;;;;;;;17.75;17.00;;;;;;;;5075127;28;50944;-61